Terminal Aerodrome Forecast
Issued by NWS New Orleans/Baton Rouge, LA

Home | Current Version | Previous Version | Text Only | Print | Product List | Glossary On
Versions: 1 2 3 4 5 6 7 8 9 10 11 12 13 14 15 16 17 18 19 20 21 22 23 24 25 26 27 28
000
FTUS44 KLIX 211120
TAFNEW
TAF
KNEW 211120Z 2112/2212 08007KT P6SM SCT250
     FM211400 11009KT P6SM BKN250
     FM220300 11009KT P6SM OVC025
     FM221100 13009KT P6SM VCSH OVC015=

USA.gov is the U.S. government's official web portal to all federal, state and local government web resources and services.